x

Sentry Shoal (46131) Wave Buoy

5:00 - Fri 18th Apr 2014 All times are PDT. -7 hours from GMT.

  • Sig Wave height 1.3ft
  • Peak Period 3s
  • Wind
    16mph, 20mph gusts
  • Sea Temp 47°f
  • Ar Temp 45°f
  • Sea Pressure 1013.7mb
  • Sentry Shoal
  • Sentry Shoal

More Historic Weather Station data

Upgrade to MSW Pro to gain access to the past 30 days of data for over 8000 Wavebouys and Weather Stations around the globe.

Join Pro

Comparision Forecast

View Surf forecast
   
Sex 04/18 5:00 1.3ft 3s 16 20 mph 1013.7mb 47f 45f
4:00 1.3ft 3s 16 18 mph 1013mb 47f 46f
3:00 1.3ft 3s 18 20 mph 1012.4mb 47f 46f
2:00 1ft 3s 16 20 mph 1011.8mb 48f 46f
1:00 1.3ft 3s 16 18 mph 1011.1mb 48f 46f
12:00 1.3ft 3s 18 22 mph 1009.9mb 48f 47f
Qui 04/17 11:00 1ft 2s 18 20 mph 1008.8mb 48f 47f
10:00 0.7ft 2s 16 18 mph 1007.8mb 48f 47f
9:00 0.7ft 4s 11 13 mph 1007.3mb 48f 47f
8:00 1ft 5s 9 11 mph 1006.5mb 47f 46f
7:00 1.3ft 3s 11 13 mph 1006.4mb 48f 46f
6:00 2ft 3s 18 22 mph 1006.1mb 48f 45f
5:00 1.6ft 4s 20 22 mph 1005.9mb 48f 46f
4:00 3ft 5s 11 13 mph 1005.7mb 48f 47f
3:00 4ft 5s 18 22 mph 1005mb 48f 49f
2:00 4ft 5s 20 22 mph 1005.1mb 48f 50f
1:00 4.5ft 5s 25 29 mph 1005.1mb 48f 50f
12:00 3.5ft 4s 25 29 mph 1005.3mb 48f 50f
11:00 3.5ft 4s 25 27 mph 1005.5mb 48f 49f
10:00 3ft 4s 22 27 mph 1005.7mb 48f 49f
9:00 2.5ft 4s 22 27 mph 1006.1mb 48f 49f
8:00 2.5ft 4s 18 22 mph 1006.5mb 48f 49f
7:00 3ft 4s 13 18 mph 1006.8mb 48f 49f
6:00 2.5ft 4s 16 20 mph 1006.9mb 48f 49f
5:00 3ft 4s 18 20 mph 1007.2mb 48f 49f
4:00 3ft 5s 16 18 mph 1007.4mb 48f 49f
3:00 2.5ft 4s 16 20 mph 1007.9mb 48f 49f
2:00 2.5ft 4s 22 31 mph 1008.1mb 48f 49f
1:00 2ft 4s 16 18 mph 1009.1mb 48f 49f
12:00 2.5ft 4s 13 18 mph 1009.7mb 48f 49f
Qua 04/16 11:00 2.5ft 4s 18 22 mph 1010mb 48f 49f
10:00 2.5ft 4s 18 22 mph 1010.7mb 48f 49f
9:00 3.5ft 5s 18 20 mph 1011.1mb 48f 50f
8:00 4ft 5s 20 25 mph 1011mb 48f 50f
7:00 4ft 5s 20 22 mph 1011.7mb 48f 50f
6:00 4ft 5s 18 22 mph 1012.1mb 48f 50f
5:00 4ft 5s 22 27 mph 1012.2mb 49f 50f
4:00 3.5ft 5s 18 22 mph 1012.8mb 48f 50f
3:00 3ft 4s 22 25 mph 1013.2mb 49f 49f
2:00 3ft 4s 22 27 mph 1013.7mb 49f 49f
1:00 2.5ft 4s 20 25 mph 1014.3mb 49f 49f
12:00 2.5ft 5s 18 22 mph 1014.4mb 49f 49f
11:00 2.5ft 4s 20 25 mph 1014.3mb 49f 48f
10:00 2.5ft 4s 20 22 mph 1014.3mb 49f 48f
9:00 2.5ft 4s 20 22 mph 1014.7mb 49f 48f
8:00 2.5ft 4s 20 22 mph 1014.4mb 49f 47f
7:00 2.5ft 4s 20 22 mph 1014.4mb 49f 48f
6:00 2.5ft 4s 18 22 mph 1014.5mb 49f 48f
5:00 1.6ft 4s 18 20 mph 1014.8mb 49f 48f
4:00 1.3ft 3s 18 20 mph 1015.1mb 50f 47f
3:00 1ft 3s 16 18 mph 1015.4mb 50f 48f
2:00 1ft 2s 13 18 mph 1016mb 50f 48f
1:00 1ft 2s 16 18 mph 1016.2mb 50f 47f
12:00 1ft 4s 11 13 mph 1016.6mb 50f 48f
Ter 04/15 11:00 1ft 4s 11 13 mph 1016.9mb 50f 48f
10:00 1ft 3s 16 18 mph 1016.7mb 50f 50f
9:00 1ft 4s 9 16 mph 1016.8mb 50f 51f
8:00 1.3ft 4s 7 9 mph 1016.7mb 50f 53f
7:00 1.3ft 4s 4 7 mph 1016.9mb 51f 53f
6:00 2ft 4s 13 16 mph 1017.3mb 51f 54f
4:00 2.5ft 4s 20 22 mph 1017.7mb 51f 52f
3:00 1.6ft 4s 18 22 mph 1017.9mb 51f 52f
2:00 0.3ft 2s 18 22 mph 1018.3mb 52f 52f
1:00 0.3ft 2s 7 9 mph 1019.3mb 52f 51f
12:00  -  2s 7 9 mph 1019.6mb 52f 51f
11:00 0.3ft 4s 4 7 mph 1019.8mb 51f 49f
10:00  -  2s 2 4 mph 1019.9mb 51f 51f
9:00  -  2s 4 7 mph 1019.4mb 50f 49f
8:00  -  2s 7 9 mph 1019.1mb 50f 48f
7:00 0.3ft 2s 4 7 mph 1018.9mb 50f 48f
6:00 0.3ft 2s 2 4 mph 1019.2mb 50f 48f
5:00 0.3ft 3s 2
mph
1019.5mb 50f 48f
4:00 0.7ft 3s 11 13 mph 1019.3mb 50f 49f
3:00 1ft 3s 11 13 mph 1019.4mb 50f 49f
2:00 1ft 3s 16 18 mph 1018.9mb 50f 51f
1:00 1ft 3s 18 20 mph 1018.8mb 50f 51f
12:00 1ft 3s 18 20 mph 1018.8mb 50f 51f
Seg 04/14 11:00 1ft 3s 16 20 mph 1018.5mb 51f 52f
10:00 1ft 2s 16 20 mph 1018.3mb 51f 53f
9:00 0.7ft 2s 16 22 mph 1018mb 52f 53f
8:00 1ft 3s 13 16 mph 1017mb 52f 55f
7:00 0.3ft 3s 18 20 mph 1016.9mb 53f 57f
6:00  -  7s 2 4 mph 1017.2mb 53f 55f
5:00  -  3s 4
mph
1017.4mb 53f 53f
4:00  -  2s  -  2 mph 1017.5mb 53f 54f
3:00  -  4s 4 7 mph 1018mb 52f 52f
2:00  -  3s 9 11 mph 1018.6mb 52f 52f